Time;durP1;ratioP1;P1;durP2;ratioP2;P2;SDS_P1;SDS_P2;PMS_P1;PMS_P2;Temp;Humidity;BMP_temperature;BMP_pressure;BME280_temperature;BME280_humidity;BME280_pressure;Samples;Min_cycle;Max_cycle;Signal;HPM_P1;HPM_P2
2023/02/23 00:01:24;;;;;;;21.57;12.77;;;7.70;99.90;;;;;;5050883;28;20207;-51
2023/02/23 00:03:55;;;;;;;22.60;13.17;;;7.70;99.90;;;;;;5059585;28;20576;-56
2023/02/23 00:06:24;;;;;;;23.70;12.50;;;7.60;99.90;;;;;;5063495;28;21001;-53
2023/02/23 00:08:52;;;;;;;21.50;12.43;;;7.60;99.90;;;;;;5059118;28;20203;-56
2023/02/23 00:11:20;;;;;;;20.60;12.00;;;7.60;99.90;;;;;;5062941;28;20297;-54
2023/02/23 00:13:49;;;;;;;19.20;12.40;;;7.50;99.90;;;;;;5037945;28;20549;-55
2023/02/23 00:16:19;;;;;;;20.43;11.60;;;7.50;99.90;;;;;;5048549;28;20286;-52
2023/02/23 00:18:49;;;;;;;19.67;11.03;;;7.50;99.90;;;;;;5041356;28;20231;-56
2023/02/23 00:21:21;;;;;;;18.17;12.47;;;7.50;99.90;;;;;;5043266;28;20204;-52
2023/02/23 00:23:52;;;;;;;21.30;13.07;;;7.50;99.90;;;;;;5043319;28;20218;-56
2023/02/23 00:26:20;;;;;;;21.63;12.47;;;7.50;99.90;;;;;;5051939;28;20286;-49
2023/02/23 00:28:49;;;;;;;21.23;11.67;;;7.40;99.90;;;;;;5042317;28;20217;-56
2023/02/23 00:31:17;;;;;;;22.40;12.23;;;7.40;99.90;;;;;;5046861;28;20203;-49
2023/02/23 00:33:44;;;;;;;21.27;11.93;;;7.40;99.90;;;;;;5040156;28;20202;-56
2023/02/23 00:36:14;;;;;;;18.13;10.70;;;7.30;99.90;;;;;;5040669;28;20961;-54
2023/02/23 00:38:41;;;;;;;20.50;12.63;;;7.30;99.90;;;;;;5044216;28;20608;-55
2023/02/23 00:41:11;;;;;;;19.37;12.07;;;7.30;99.90;;;;;;5043576;28;20211;-53
2023/02/23 00:43:46;;;;;;;21.97;12.47;;;7.30;99.90;;;;;;5040482;28;20332;-55
2023/02/23 00:46:15;;;;;;;23.90;13.20;;;7.30;99.90;;;;;;5047422;28;21000;-54
2023/02/23 00:48:44;;;;;;;20.87;13.10;;;7.20;99.90;;;;;;5065470;28;20202;-55
2023/02/23 00:51:11;;;;;;;22.70;12.67;;;7.20;99.90;;;;;;5065102;28;20253;-48
2023/02/23 00:53:40;;;;;;;23.63;11.53;;;7.20;99.90;;;;;;5046004;28;20620;-55
2023/02/23 00:56:12;;;;;;;23.80;13.43;;;7.20;99.90;;;;;;5055013;28;20202;-51
2023/02/23 00:58:38;;;;;;;20.73;12.40;;;7.20;99.90;;;;;;5043760;28;20573;-54
2023/02/23 01:01:06;;;;;;;25.23;12.70;;;7.20;99.90;;;;;;5053813;28;20229;-48
2023/02/23 01:03:34;;;;;;;20.43;12.70;;;7.10;99.90;;;;;;5045456;28;20301;-49
2023/02/23 01:06:04;;;;;;;21.93;13.77;;;7.20;99.90;;;;;;5043426;28;20199;-54
2023/02/23 01:08:31;;;;;;;24.50;12.23;;;7.10;99.90;;;;;;5047073;28;20210;-52
2023/02/23 01:10:58;;;;;;;22.20;12.17;;;7.10;99.90;;;;;;5042774;28;20226;-56
2023/02/23 01:13:26;;;;;;;21.97;12.47;;;7.10;99.90;;;;;;5046945;28;20253;-54
2023/02/23 01:15:54;;;;;;;24.30;12.97;;;7.00;99.90;;;;;;5037484;28;20214;-55
2023/02/23 01:18:21;;;;;;;23.77;13.33;;;7.00;99.90;;;;;;5047355;28;20207;-52
2023/02/23 01:20:49;;;;;;;20.47;12.13;;;7.00;99.90;;;;;;5044610;28;20223;-54
2023/02/23 01:23:16;;;;;;;21.00;13.37;;;7.00;99.90;;;;;;5045900;28;20306;-52
2023/02/23 01:25:48;;;;;;;22.17;13.67;;;7.00;99.90;;;;;;5044624;28;20256;-56
2023/02/23 01:28:14;;;;;;;18.67;12.37;;;7.10;99.90;;;;;;5051413;28;20935;-54
2023/02/23 01:30:43;;;;;;;24.80;13.13;;;7.00;99.90;;;;;;5039757;28;20232;-55
2023/02/23 01:33:12;;;;;;;28.17;12.60;;;7.00;99.90;;;;;;5052820;28;20187;-54
2023/02/23 01:35:39;;;;;;;23.17;12.77;;;7.00;99.90;;;;;;5044894;28;20214;-54
2023/02/23 01:38:06;;;;;;;20.67;12.43;;;7.00;99.90;;;;;;5044043;28;20281;-51
2023/02/23 01:40:38;;;;;;;21.80;12.77;;;7.00;99.90;;;;;;5044739;28;20226;-55
2023/02/23 01:43:13;;;;;;;23.13;12.27;;;7.00;99.90;;;;;;5041624;28;20223;-51
2023/02/23 01:45:43;;;;;;;22.93;13.17;;;7.00;99.90;;;;;;5037414;28;20230;-56
2023/02/23 01:48:14;;;;;;;26.60;13.03;;;6.90;99.90;;;;;;5050339;28;20978;-54
2023/02/23 01:50:48;;;;;;;24.40;12.57;;;6.90;99.90;;;;;;5042072;28;20249;-56
2023/02/23 01:53:16;;;;;;;25.57;13.20;;;6.90;99.90;;;;;;5045119;28;20201;-50
2023/02/23 01:55:45;;;;;;;23.60;13.63;;;6.90;99.90;;;;;;5051816;28;20199;-57
2023/02/23 01:58:18;;;;;;;20.23;12.43;;;6.90;99.90;;;;;;5049609;28;20930;-52
2023/02/23 02:00:49;;;;;;;25.43;13.77;;;6.90;99.90;;;;;;5044172;28;20234;-56
2023/02/23 02:03:23;;;;;;;29.50;14.63;;;6.90;99.90;;;;;;5050322;28;20214;-50
2023/02/23 02:05:55;;;;;;;23.70;13.40;;;6.90;99.90;;;;;;5042415;28;20199;-55
2023/02/23 02:08:25;;;;;;;22.03;13.97;;;6.90;99.90;;;;;;5045960;28;20198;-52
2023/02/23 02:10:54;;;;;;;23.70;13.03;;;6.90;99.90;;;;;;5042682;28;20310;-55
2023/02/23 02:13:24;;;;;;;21.57;14.10;;;6.90;99.90;;;;;;5045452;28;20226;-52
2023/02/23 02:16:16;;;;;;;25.53;13.73;;;6.90;99.90;;;;;;5033458;28;20715;-54
2023/02/23 02:19:54;;;;;;;21.83;12.97;;;6.90;99.90;;;;;;5053020;28;20833;-52
2023/02/23 02:25:47;;;;;;;24.00;13.87;;;6.80;99.90;;;;;;5064760;28;20209;-49
2023/02/23 02:28:47;;;;;;;25.13;14.23;;;6.80;99.90;;;;;;5062596;28;20222;-53
2023/02/23 02:31:42;;;;;;;24.00;13.40;;;6.80;99.90;;;;;;5039050;28;23989;-51
2023/02/23 02:34:36;;;;;;;23.63;14.17;;;6.80;99.90;;;;;;5046949;28;20193;-49
2023/02/23 02:37:19;;;;;;;26.63;13.90;;;6.80;99.90;;;;;;5036001;28;20212;-51
2023/02/23 02:40:13;;;;;;;26.90;14.27;;;6.80;99.90;;;;;;5042391;28;20265;-55
2023/02/23 02:42:51;;;;;;;23.70;14.50;;;6.80;99.90;;;;;;5042751;28;21031;-55
2023/02/23 02:45:26;;;;;;;23.50;13.80;;;6.80;99.90;;;;;;5059417;28;20202;-50
2023/02/23 02:48:00;;;;;;;25.03;13.33;;;6.80;99.90;;;;;;5036455;28;20372;-54
2023/02/23 02:50:41;;;;;;;28.70;13.87;;;6.80;99.90;;;;;;5053904;28;20223;-49
2023/02/23 02:53:13;;;;;;;27.87;14.40;;;6.80;99.90;;;;;;5042629;28;20222;-49
2023/02/23 02:55:43;;;;;;;23.37;14.13;;;6.80;99.90;;;;;;5042492;28;20213;-55
2023/02/23 02:58:13;;;;;;;21.20;13.70;;;6.80;99.90;;;;;;5041709;28;20201;-50
2023/02/23 04:19:27;;;;;;;32.70;16.57;;;7.40;99.90;;;;;;5043594;28;20222;-55
2023/02/23 04:21:55;;;;;;;31.57;16.83;;;7.40;99.90;;;;;;5043294;28;20203;-52
2023/02/23 04:24:22;;;;;;;32.30;16.30;;;7.50;99.90;;;;;;5041306;28;20229;-55
2023/02/23 04:27:10;;;;;;;40.90;17.27;;;7.40;99.90;;;;;;5044024;28;20575;-55
2023/02/23 04:29:37;;;;;;;33.73;16.37;;;7.50;99.90;;;;;;5040889;28;20211;-56
2023/02/23 04:32:06;;;;;;;31.23;17.10;;;7.50;99.90;;;;;;5044237;28;20211;-53
2023/02/23 04:34:33;;;;;;;39.57;17.03;;;7.50;99.90;;;;;;5030779;28;20192;-55
2023/02/23 04:37:00;;;;;;;36.13;17.27;;;7.50;99.90;;;;;;5055651;28;20205;-52
2023/02/23 04:39:27;;;;;;;34.83;17.20;;;7.50;99.90;;;;;;5040798;28;20673;-55
2023/02/23 04:41:54;;;;;;;33.17;16.53;;;7.50;99.90;;;;;;5043733;28;20202;-53
2023/02/23 04:44:21;;;;;;;32.57;17.60;;;7.50;99.90;;;;;;5040917;28;20223;-56
2023/02/23 04:46:48;;;;;;;32.40;16.33;;;7.50;99.90;;;;;;5042549;28;20198;-55
2023/02/23 04:49:16;;;;;;;33.50;17.77;;;7.50;99.90;;;;;;5042118;28;20210;-52
2023/02/23 04:51:43;;;;;;;37.73;17.63;;;7.60;99.90;;;;;;5042256;28;20203;-54
2023/02/23 04:54:10;;;;;;;37.53;17.57;;;7.50;99.90;;;;;;5043949;28;20207;-57
2023/02/23 04:56:38;;;;;;;37.23;16.87;;;7.50;99.90;;;;;;5040008;28;20915;-52
2023/02/23 04:59:08;;;;;;;32.77;16.77;;;7.60;99.90;;;;;;5042670;28;20556;-53
2023/02/23 05:01:36;;;;;;;32.63;17.37;;;7.50;99.90;;;;;;5039591;28;20257;-54
2023/02/23 05:04:02;;;;;;;36.47;18.50;;;7.60;99.90;;;;;;5042802;28;20215;-55
2023/02/23 05:06:32;;;;;;;33.70;17.50;;;7.60;99.90;;;;;;5027569;28;20812;-56
2023/02/23 05:08:59;;;;;;;31.63;16.97;;;7.60;99.90;;;;;;5059121;28;20559;-53
2023/02/23 05:11:26;;;;;;;38.43;17.90;;;7.60;99.90;;;;;;5040077;28;20203;-56
2023/02/23 05:13:54;;;;;;;33.87;17.50;;;7.70;99.90;;;;;;5042924;28;20222;-50
2023/02/23 05:16:20;;;;;;;32.13;17.13;;;7.70;99.90;;;;;;5041496;28;20738;-56
2023/02/23 05:18:48;;;;;;;28.10;16.27;;;7.70;99.90;;;;;;5042830;28;20807;-55
2023/02/23 05:21:15;;;;;;;34.40;16.80;;;7.70;99.90;;;;;;5038724;28;20229;-55
2023/02/23 05:23:44;;;;;;;34.63;18.10;;;7.70;99.90;;;;;;5042885;28;20261;-53
2023/02/23 05:26:13;;;;;;;29.10;16.30;;;7.70;99.90;;;;;;5046637;28;20199;-56
2023/02/23 05:28:41;;;;;;;31.00;16.70;;;7.70;99.90;;;;;;5054764;28;20945;-55
2023/02/23 05:31:09;;;;;;;30.03;16.30;;;7.70;99.90;;;;;;5046830;28;20219;-52
2023/02/23 05:33:41;;;;;;;32.03;17.17;;;7.70;99.90;;;;;;5042830;28;20965;-52
2023/02/23 05:36:10;;;;;;;29.90;17.50;;;7.70;99.90;;;;;;5040035;28;20202;-50
2023/02/23 05:38:37;;;;;;;36.20;19.00;;;7.70;99.90;;;;;;5044903;28;20322;-49
2023/02/23 05:41:09;;;;;;;38.27;19.13;;;7.80;99.90;;;;;;5059944;28;20300;-52
2023/02/23 05:43:36;;;;;;;40.17;19.80;;;7.80;99.90;;;;;;5061785;28;20214;-51
2023/02/23 05:46:06;;;;;;;39.13;19.37;;;7.80;99.90;;;;;;5058554;28;20203;-54
2023/02/23 05:48:36;;;;;;;41.20;20.63;;;7.80;99.90;;;;;;5049446;28;20206;-51
2023/02/23 05:51:05;;;;;;;40.03;20.03;;;7.80;99.90;;;;;;5051531;28;20233;-55
2023/02/23 05:53:31;;;;;;;43.67;22.77;;;7.80;99.90;;;;;;5033791;28;20207;-54
2023/02/23 05:55:58;;;;;;;44.00;22.13;;;7.80;99.90;;;;;;5050300;28;20199;-56
2023/02/23 05:58:27;;;;;;;43.93;22.80;;;7.80;99.90;;;;;;5044729;28;20712;-55
2023/02/23 06:00:54;;;;;;;56.50;24.13;;;7.80;99.90;;;;;;5054584;28;20230;-55
2023/02/23 06:03:21;;;;;;;48.97;22.33;;;7.80;99.90;;;;;;5050712;28;20243;-53
2023/02/23 06:05:52;;;;;;;50.07;22.53;;;7.80;99.90;;;;;;5047243;28;20726;-55
2023/02/23 06:08:38;;;;;;;49.90;22.27;;;7.80;99.90;;;;;;5034378;28;20214;-53
2023/02/23 06:11:05;;;;;;;54.63;22.53;;;7.80;99.90;;;;;;5043096;28;20230;-55
2023/02/23 06:13:33;;;;;;;61.77;25.97;;;7.80;99.90;;;;;;5053686;28;20191;-52
2023/02/23 06:16:01;;;;;;;53.67;24.47;;;7.80;99.90;;;;;;5052622;28;20195;-56
2023/02/23 06:18:29;;;;;;;50.30;24.43;;;7.80;99.90;;;;;;5054429;28;20207;-50
2023/02/23 06:20:59;;;;;;;47.47;22.80;;;7.70;99.90;;;;;;5052286;28;20249;-56
2023/02/23 06:23:27;;;;;;;51.10;22.57;;;7.70;99.90;;;;;;5043241;28;20194;-53
2023/02/23 06:25:53;;;;;;;56.90;24.97;;;7.70;99.90;;;;;;5053401;28;20199;-54
2023/02/23 06:28:20;;;;;;;55.93;24.47;;;7.70;99.90;;;;;;5045260;28;20959;-51
2023/02/23 06:30:51;;;;;;;55.97;23.27;;;7.70;99.90;;;;;;5046658;28;20225;-52
2023/02/23 06:33:18;;;;;;;59.87;24.97;;;7.70;99.90;;;;;;5053940;28;20199;-57
2023/02/23 06:35:45;;;;;;;67.87;26.43;;;7.70;99.90;;;;;;5046769;28;20204;-55
2023/02/23 06:38:12;;;;;;;55.63;26.17;;;7.70;99.90;;;;;;5041433;28;20209;-56
2023/02/23 06:41:07;;;;;;;59.93;25.17;;;7.70;99.90;;;;;;5048921;28;20730;-50
2023/02/23 06:43:34;;;;;;;58.90;24.53;;;7.80;99.90;;;;;;5044030;28;20369;-49
2023/02/23 06:46:03;;;;;;;68.40;25.97;;;7.70;99.90;;;;;;5054950;28;20204;-53
2023/02/23 06:48:31;;;;;;;63.87;25.30;;;7.70;99.90;;;;;;5047047;28;20963;-51
2023/02/23 06:50:59;;;;;;;53.40;23.83;;;7.70;99.90;;;;;;5044402;28;20693;-55
2023/02/23 06:53:25;;;;;;;61.00;25.47;;;7.70;99.90;;;;;;5040360;28;20285;-50
2023/02/23 06:56:14;;;;;;;63.80;24.73;;;7.70;99.90;;;;;;5045439;28;20289;-51
2023/02/23 06:58:42;;;;;;;60.83;25.83;;;7.70;99.90;;;;;;5063317;28;20289;-55
2023/02/23 07:01:11;;;;;;;67.33;25.67;;;7.70;99.90;;;;;;5044366;28;20245;-56
2023/02/23 07:03:38;;;;;;;64.93;25.30;;;7.70;99.90;;;;;;5050050;28;20861;-53
2023/02/23 07:06:06;;;;;;;64.30;25.73;;;7.70;99.90;;;;;;5055710;28;20206;-55
2023/02/23 07:08:33;;;;;;;72.40;27.37;;;7.70;99.90;;;;;;5029904;28;20207;-55
2023/02/23 07:11:06;;;;;;;62.47;25.30;;;7.70;99.90;;;;;;5055547;28;20226;-52
2023/02/23 07:13:57;;;;;;;69.87;26.37;;;7.70;99.90;;;;;;5042156;28;20203;-51
2023/02/23 07:16:26;;;;;;;65.87;26.20;;;7.70;99.90;;;;;;5044681;28;20260;-53
2023/02/23 07:18:54;;;;;;;74.17;27.37;;;7.80;99.90;;;;;;5057109;28;20187;-53
2023/02/23 07:21:21;;;;;;;68.67;27.10;;;7.80;99.90;;;;;;5054139;28;20208;-50
2023/02/23 07:23:48;;;;;;;69.37;27.07;;;7.70;99.90;;;;;;5029830;28;20214;-52
2023/02/23 07:26:15;;;;;;;73.47;27.87;;;7.80;99.90;;;;;;5050257;28;20201;-51
2023/02/23 07:28:43;;;;;;;67.47;27.63;;;7.80;99.90;;;;;;5048671;28;20249;-53
2023/02/23 07:31:09;;;;;;;80.97;29.27;;;7.70;99.90;;;;;;5041442;28;20223;-51
2023/02/23 07:33:38;;;;;;;74.17;28.20;;;7.70;99.90;;;;;;5038646;28;20643;-52
2023/02/23 07:36:05;;;;;;;81.27;29.77;;;7.70;99.90;;;;;;5037819;28;20233;-52
2023/02/23 07:38:33;;;;;;;82.53;29.73;;;7.70;99.90;;;;;;5041626;28;20211;-52
2023/02/23 07:41:01;;;;;;;85.87;30.47;;;7.70;99.90;;;;;;5040654;28;20226;-55
2023/02/23 07:43:28;;;;;;;82.77;28.90;;;7.80;99.90;;;;;;5047780;28;20199;-52
2023/02/23 07:45:58;;;;;;;81.37;28.90;;;7.70;99.90;;;;;;5043431;28;20301;-53
2023/02/23 07:48:49;;;;;;;85.90;30.13;;;7.80;99.90;;;;;;5055716;28;20271;-53
2023/02/23 07:51:16;;;;;;;83.47;29.30;;;7.80;99.90;;;;;;5060857;28;20778;-50
2023/02/23 07:53:46;;;;;;;94.50;30.83;;;7.80;99.90;;;;;;5040283;28;20297;-55
2023/02/23 07:56:13;;;;;;;76.13;28.80;;;7.80;99.90;;;;;;5033123;28;20205;-55
2023/02/23 07:58:40;;;;;;;82.83;28.93;;;7.80;99.90;;;;;;5045014;28;20207;-55
2023/02/23 08:01:09;;;;;;;84.50;29.50;;;7.70;99.90;;;;;;5043788;28;20223;-51
2023/02/23 08:03:37;;;;;;;82.07;28.63;;;7.80;99.90;;;;;;5035046;28;20222;-55
2023/02/23 08:06:07;;;;;;;78.13;28.50;;;7.80;99.90;;;;;;5054530;28;20218;-54
2023/02/23 08:08:36;;;;;;;70.60;29.33;;;7.80;99.90;;;;;;5030270;28;20203;-53
2023/02/23 08:11:05;;;;;;;75.30;28.60;;;7.80;99.90;;;;;;5039647;28;20908;-51
2023/02/23 08:13:58;;;;;;;67.27;27.33;;;7.80;99.90;;;;;;5044818;28;20617;-52
2023/02/23 08:16:44;;;;;;;71.83;25.80;;;7.80;99.90;;;;;;5052884;28;20891;-50
2023/02/23 08:19:11;;;;;;;78.07;28.03;;;7.80;99.90;;;;;;5047697;28;20195;-55
2023/02/23 08:21:39;;;;;;;75.63;27.50;;;7.80;99.90;;;;;;5040734;28;21512;-52
2023/02/23 08:24:06;;;;;;;74.87;26.07;;;7.80;99.90;;;;;;5043603;28;20286;-55
2023/02/23 08:26:35;;;;;;;61.50;27.27;;;7.80;99.90;;;;;;5034425;28;20217;-54
2023/02/23 08:29:21;;;;;;;66.87;25.13;;;7.80;99.90;;;;;;5044727;28;20343;-55
2023/02/23 08:32:07;;;;;;;62.57;25.80;;;7.80;99.90;;;;;;5049451;28;20217;-51
2023/02/23 08:34:38;;;;;;;68.47;26.23;;;7.80;99.90;;;;;;5038234;28;20206;-54
2023/02/23 08:37:06;;;;;;;60.17;25.60;;;7.90;99.90;;;;;;5042538;28;20199;-51
2023/02/23 08:39:34;;;;;;;63.27;25.20;;;7.90;99.90;;;;;;5046064;28;21020;-55
2023/02/23 08:42:00;;;;;;;66.17;26.50;;;7.80;99.90;;;;;;5047356;28;20209;-55
2023/02/23 08:44:27;;;;;;;62.07;24.93;;;7.90;99.90;;;;;;5037346;28;20580;-56
2023/02/23 08:46:54;;;;;;;58.30;26.90;;;7.80;99.90;;;;;;5041019;28;20203;-56
2023/02/23 08:49:21;;;;;;;61.20;27.77;;;7.80;99.90;;;;;;5053922;28;20322;-56
2023/02/23 08:51:49;;;;;;;59.33;26.57;;;7.80;99.90;;;;;;5054868;28;20201;-55
2023/02/23 08:54:19;;;;;;;64.90;28.47;;;7.80;99.90;;;;;;5047940;28;20234;-56
2023/02/23 08:56:46;;;;;;;64.10;27.20;;;7.80;99.90;;;;;;5033565;28;20299;-56
2023/02/23 08:59:14;;;;;;;68.20;27.73;;;7.80;99.90;;;;;;5053604;28;20222;-55
2023/02/23 09:01:41;;;;;;;62.63;27.70;;;7.90;99.90;;;;;;5043329;28;20215;-55
2023/02/23 09:04:10;;;;;;;66.23;29.53;;;7.80;99.90;;;;;;5047782;28;20544;-53
2023/02/23 09:06:37;;;;;;;66.47;28.80;;;7.90;99.90;;;;;;5051460;28;20248;-55
2023/02/23 09:09:04;;;;;;;62.63;28.80;;;7.90;99.90;;;;;;5056579;28;20321;-55
2023/02/23 09:11:33;;;;;;;64.93;28.07;;;7.90;99.90;;;;;;5049886;28;20703;-52
2023/02/23 09:14:01;;;;;;;67.13;28.80;;;7.90;99.90;;;;;;5039466;28;20211;-55
2023/02/23 09:16:29;;;;;;;67.87;29.53;;;7.90;99.90;;;;;;5048917;28;20229;-53
2023/02/23 09:18:58;;;;;;;71.80;29.50;;;7.80;99.90;;;;;;5053708;28;20245;-52
2023/02/23 09:21:25;;;;;;;73.70;29.30;;;7.80;99.90;;;;;;5049876;28;20195;-55
2023/02/23 09:23:54;;;;;;;78.17;32.47;;;7.80;99.90;;;;;;5055197;28;20206;-56
2023/02/23 09:26:25;;;;;;;76.53;30.13;;;7.80;99.90;;;;;;5045258;28;20239;-54
2023/02/23 09:28:53;;;;;;;85.50;31.83;;;7.70;99.90;;;;;;5042862;28;20252;-56
2023/02/23 09:31:23;;;;;;;78.70;31.87;;;7.70;99.90;;;;;;5045977;28;20218;-53
2023/02/23 09:34:12;;;;;;;81.60;32.70;;;7.70;99.90;;;;;;5042473;28;20215;-56
2023/02/23 09:36:39;;;;;;;96.40;35.00;;;7.60;99.90;;;;;;5051845;28;20209;-55
2023/02/23 09:39:06;;;;;;;103.13;35.47;;;7.70;99.90;;;;;;5047242;28;20201;-56
2023/02/23 09:41:58;;;;;;;102.87;34.80;;;7.60;99.90;;;;;;5044065;28;20230;-55
2023/02/23 09:44:51;;;;;;;106.97;35.80;;;7.60;99.90;;;;;;5042191;28;20199;-54
2023/02/23 09:47:29;;;;;;;113.37;35.83;;;7.50;99.90;;;;;;5049183;28;20704;-54
2023/02/23 09:49:58;;;;;;;110.27;37.27;;;7.50;99.90;;;;;;5050457;28;20281;-56
2023/02/23 09:52:32;;;;;;;104.40;34.43;;;7.50;99.90;;;;;;5052371;28;20206;-55
2023/02/23 09:55:00;;;;;;;104.63;37.93;;;7.40;99.90;;;;;;5050372;28;20253;-54
2023/02/23 09:57:36;;;;;;;108.13;36.63;;;7.40;99.90;;;;;;5048745;28;20287;-54
2023/02/23 10:00:14;;;;;;;119.60;35.87;;;7.40;99.90;;;;;;5043978;28;20222;-53
2023/02/23 10:02:55;;;;;;;119.87;38.80;;;7.40;99.90;;;;;;5058115;28;20198;-54
2023/02/23 10:05:46;;;;;;;98.40;34.23;;;7.40;99.90;;;;;;5042605;28;21411;-56
2023/02/23 10:08:22;;;;;;;93.57;33.83;;;7.40;99.90;;;;;;5049984;28;20210;-55
2023/02/23 10:11:22;;;;;;;95.27;34.60;;;7.40;99.90;;;;;;5062696;28;20738;-56
2023/02/23 10:14:01;;;;;;;107.10;35.40;;;7.40;99.90;;;;;;5053781;28;20898;-54
2023/02/23 10:16:42;;;;;;;111.63;35.27;;;7.40;99.90;;;;;;5034536;28;20229;-55
2023/02/23 10:19:19;;;;;;;94.13;33.63;;;7.50;99.90;;;;;;5057897;28;20195;-54
2023/02/23 10:21:54;;;;;;;99.00;34.20;;;7.40;99.90;;;;;;5048147;28;20811;-51
2023/02/23 10:24:24;;;;;;;101.33;35.33;;;7.50;99.90;;;;;;5047270;28;20289;-53
2023/02/23 10:26:54;;;;;;;95.00;35.33;;;7.40;99.90;;;;;;5056592;28;20206;-53
2023/02/23 10:29:47;;;;;;;111.53;35.00;;;7.40;99.90;;;;;;5040221;28;20238;-54
2023/02/23 10:32:21;;;;;;;94.43;33.07;;;7.40;99.90;;;;;;5053870;28;20210;-54
2023/02/23 10:34:52;;;;;;;98.73;34.47;;;7.40;99.90;;;;;;5054595;28;20195;-53
2023/02/23 10:37:39;;;;;;;102.07;32.33;;;7.40;99.90;;;;;;5039278;28;20466;-55
2023/02/23 10:40:13;;;;;;;91.17;32.27;;;7.40;99.90;;;;;;5041780;28;20230;-52
2023/02/23 10:42:43;;;;;;;86.80;33.43;;;7.50;99.90;;;;;;5050568;28;20925;-55
2023/02/23 10:45:17;;;;;;;92.10;32.40;;;7.50;99.90;;;;;;5038595;28;20207;-56
2023/02/23 10:47:47;;;;;;;90.80;33.67;;;7.50;99.90;;;;;;5047750;28;20276;-51
2023/02/23 10:50:15;;;;;;;94.73;32.53;;;7.50;99.90;;;;;;5052757;28;20223;-54
2023/02/23 10:52:46;;;;;;;89.67;30.47;;;7.50;99.90;;;;;;5039193;28;20194;-57
2023/02/23 10:55:33;;;;;;;81.70;29.93;;;7.60;99.90;;;;;;5044759;28;20656;-53
2023/02/23 10:58:15;;;;;;;78.10;29.70;;;7.70;99.90;;;;;;5048790;28;20198;-53
2023/02/23 11:00:52;;;;;;;90.10;31.70;;;7.70;99.90;;;;;;5037099;28;20274;-55
2023/02/23 11:03:25;;;;;;;74.17;28.23;;;7.80;99.90;;;;;;5054458;28;20200;-53
2023/02/23 11:05:52;;;;;;;79.70;28.53;;;7.80;99.90;;;;;;5042389;28;20215;-53
2023/02/23 11:08:31;;;;;;;75.43;28.20;;;7.80;99.90;;;;;;5050272;28;20658;-51
2023/02/23 11:11:05;;;;;;;77.07;26.93;;;7.80;99.90;;;;;;5049275;28;20226;-53
2023/02/23 11:13:36;;;;;;;68.40;25.87;;;7.80;99.90;;;;;;5044085;28;20606;-52
2023/02/23 11:16:28;;;;;;;68.33;25.30;;;7.80;99.90;;;;;;5039413;28;20218;-56
2023/02/23 11:19:00;;;;;;;67.20;26.67;;;7.80;99.90;;;;;;5045721;28;20199;-51
2023/02/23 11:21:32;;;;;;;64.60;25.27;;;7.80;99.90;;;;;;5048071;28;20247;-52
2023/02/23 11:24:06;;;;;;;62.77;24.80;;;7.80;99.90;;;;;;5045763;28;20278;-53
2023/02/23 11:26:38;;;;;;;71.60;25.93;;;7.80;99.90;;;;;;5050126;28;20704;-53
2023/02/23 11:29:14;;;;;;;66.63;27.20;;;7.90;99.90;;;;;;5036326;28;20211;-52
2023/02/23 11:31:48;;;;;;;60.37;25.13;;;7.90;99.90;;;;;;5036307;28;20206;-55
2023/02/23 11:34:30;;;;;;;68.83;26.27;;;7.90;99.90;;;;;;5041348;28;20734;-55
2023/02/23 11:37:01;;;;;;;71.73;25.87;;;7.90;99.90;;;;;;5050836;28;20273;-55
2023/02/23 11:39:27;;;;;;;66.33;25.33;;;7.90;99.90;;;;;;5046054;28;20241;-55
2023/02/23 11:42:14;;;;;;;65.33;24.93;;;7.90;99.90;;;;;;5055241;28;20199;-55
2023/02/23 11:44:41;;;;;;;64.57;25.53;;;8.00;99.90;;;;;;5036505;28;20273;-52
2023/02/23 11:47:15;;;;;;;77.13;26.60;;;8.00;99.90;;;;;;5040389;28;20727;-56
2023/02/23 11:49:47;;;;;;;64.57;25.47;;;8.00;99.90;;;;;;5057886;28;20244;-56
2023/02/23 11:52:20;;;;;;;60.20;25.57;;;8.00;99.90;;;;;;5052725;28;20201;-55
2023/02/23 11:54:54;;;;;;;70.03;27.13;;;8.10;99.90;;;;;;5051517;28;20218;-52
2023/02/23 11:57:21;;;;;;;67.03;26.40;;;8.10;99.90;;;;;;5049616;28;20186;-56
2023/02/23 11:59:49;;;;;;;72.37;26.50;;;8.10;99.90;;;;;;5046011;28;20219;-56
2023/02/23 12:02:49;;;;;;;69.97;25.43;;;8.10;99.90;;;;;;5029568;28;20225;-56
2023/02/23 12:05:23;;;;;;;70.20;25.77;;;8.10;99.90;;;;;;5050345;28;20277;-54
2023/02/23 12:07:56;;;;;;;70.40;27.23;;;8.10;99.90;;;;;;5049307;28;20438;-53
2023/02/23 12:10:26;;;;;;;69.13;25.77;;;8.10;99.90;;;;;;5046804;28;20228;-55
2023/02/23 12:13:03;;;;;;;63.67;24.13;;;8.10;99.90;;;;;;5050226;28;20269;-55
2023/02/23 12:15:57;;;;;;;64.83;24.63;;;8.20;99.90;;;;;;5044142;28;20238;-56
2023/02/23 12:18:38;;;;;;;71.97;25.30;;;8.20;99.90;;;;;;5034747;28;20210;-56
2023/02/23 12:21:27;;;;;;;67.33;26.10;;;8.20;99.90;;;;;;5042481;28;20253;-55
2023/02/23 12:24:03;;;;;;;70.93;25.60;;;8.20;99.90;;;;;;5047276;28;20206;-53
2023/02/23 12:26:33;;;;;;;72.60;24.87;;;8.20;99.90;;;;;;5044263;28;20210;-54
2023/02/23 12:29:05;;;;;;;62.53;24.33;;;8.20;99.90;;;;;;5045634;28;20196;-55
2023/02/23 12:31:42;;;;;;;59.87;23.33;;;8.20;99.90;;;;;;5045376;28;20268;-52
2023/02/23 12:34:14;;;;;;;65.43;25.10;;;8.10;99.90;;;;;;5039986;28;20206;-56
2023/02/23 12:36:50;;;;;;;65.60;24.83;;;8.10;99.90;;;;;;5045731;28;20206;-53
2023/02/23 12:39:24;;;;;;;62.73;24.10;;;8.20;99.90;;;;;;5045829;28;20224;-52
2023/02/23 12:42:00;;;;;;;65.17;23.83;;;8.20;99.90;;;;;;5043973;28;20220;-54
2023/02/23 12:44:39;;;;;;;63.13;22.80;;;8.30;99.90;;;;;;5045355;28;20182;-56
2023/02/23 12:47:13;;;;;;;55.90;22.30;;;8.30;99.90;;;;;;5040338;28;20215;-56
2023/02/23 12:49:46;;;;;;;59.80;23.30;;;8.30;99.90;;;;;;5032541;28;20294;-54
2023/02/23 12:52:19;;;;;;;69.17;26.07;;;8.30;99.90;;;;;;5046456;28;20201;-54
2023/02/23 12:54:47;;;;;;;61.80;23.47;;;8.30;99.90;;;;;;5040599;28;20230;-53
2023/02/23 12:57:23;;;;;;;59.40;23.40;;;8.30;99.90;;;;;;5050166;28;20716;-56
2023/02/23 13:00:28;;;;;;;65.30;23.93;;;8.30;99.90;;;;;;5053521;28;20287;-55
2023/02/23 13:03:13;;;;;;;62.17;23.17;;;8.30;99.90;;;;;;5044480;28;20787;-55
2023/02/23 13:05:46;;;;;;;55.43;23.03;;;8.30;99.90;;;;;;5054049;28;20223;-51
2023/02/23 13:08:24;;;;;;;60.20;22.03;;;8.30;99.90;;;;;;5046030;28;20629;-56
2023/02/23 13:10:57;;;;;;;60.60;22.90;;;8.20;99.90;;;;;;5049533;28;20254;-54
2023/02/23 13:13:34;;;;;;;57.50;22.93;;;8.30;99.90;;;;;;5045744;28;20183;-54
2023/02/23 13:16:09;;;;;;;60.13;22.70;;;8.20;99.90;;;;;;5043651;28;20665;-55
2023/02/23 13:18:42;;;;;;;52.20;21.17;;;8.30;99.90;;;;;;5032761;28;20967;-54
2023/02/23 13:21:17;;;;;;;49.13;19.70;;;8.30;99.90;;;;;;5046526;28;20299;-56
2023/02/23 13:23:55;;;;;;;53.23;19.97;;;8.30;99.90;;;;;;5046728;28;20214;-53
2023/02/23 13:26:30;;;;;;;55.63;19.97;;;8.30;99.90;;;;;;5045421;28;20223;-55
2023/02/23 13:29:02;;;;;;;48.10;20.20;;;8.30;99.90;;;;;;5051900;28;20199;-53
2023/02/23 13:31:33;;;;;;;47.37;19.87;;;8.30;99.90;;;;;;5038299;28;23341;-55
2023/02/23 13:34:03;;;;;;;53.43;20.13;;;8.30;99.90;;;;;;5039682;28;20678;-56
2023/02/23 13:36:31;;;;;;;48.60;18.90;;;8.40;99.90;;;;;;5048328;28;20187;-54
2023/02/23 13:39:46;;;;;;;49.80;19.90;;;8.40;99.90;;;;;;5051521;28;20208;-56
2023/02/23 13:42:31;;;;;;;48.23;19.43;;;8.40;99.90;;;;;;5039434;28;20300;-55
2023/02/23 13:45:13;;;;;;;53.00;20.03;;;8.40;99.90;;;;;;5049621;28;20191;-54
2023/02/23 13:47:47;;;;;;;49.67;19.77;;;8.40;99.90;;;;;;5046201;28;20752;-55
2023/02/23 13:50:27;;;;;;;41.07;17.97;;;8.50;99.90;;;;;;5031726;28;20296;-60
2023/02/23 13:53:00;;;;;;;46.83;19.33;;;8.50;99.90;;;;;;5056233;28;20195;-61
2023/02/23 13:55:37;;;;;;;44.77;19.33;;;8.50;99.90;;;;;;5042215;28;20214;-50
2023/02/23 13:58:06;;;;;;;52.57;18.90;;;8.50;99.90;;;;;;5050000;28;20230;-49
2023/02/23 14:00:33;;;;;;;48.57;19.63;;;8.50;99.90;;;;;;5048501;28;20235;-59
2023/02/23 14:03:04;;;;;;;51.33;18.57;;;8.50;99.90;;;;;;5043380;28;20248;-51
2023/02/23 14:05:32;;;;;;;38.03;15.77;;;8.50;99.90;;;;;;5038442;28;20645;-60
2023/02/23 14:08:27;;;;;;;46.30;18.57;;;8.50;99.90;;;;;;5052909;28;20203;-53
2023/02/23 14:10:56;;;;;;;43.93;18.07;;;8.40;99.90;;;;;;5042994;28;21577;-49
2023/02/23 14:13:29;;;;;;;35.20;16.20;;;8.40;99.90;;;;;;5041825;28;20203;-57
2023/02/23 14:16:15;;;;;;;43.33;17.40;;;8.40;99.90;;;;;;5056345;28;20827;-51
2023/02/23 14:19:04;;;;;;;44.03;17.67;;;8.40;99.90;;;;;;5048034;28;20199;-49
2023/02/23 14:21:35;;;;;;;47.97;16.93;;;8.40;99.90;;;;;;5037978;28;20226;-61
2023/02/23 14:24:16;;;;;;;45.80;16.07;;;8.40;99.90;;;;;;5051574;28;20695;-52
2023/02/23 14:27:15;;;;;;;44.33;16.53;;;8.40;99.90;;;;;;5045011;28;20315;-49